createdAt,value
2018-09-04T00:00:42.972Z,24.78
2018-09-04T00:03:08.921Z,24.94
2018-09-04T00:05:34.839Z,24.60
2018-09-04T00:08:00.900Z,24.62
2018-09-04T00:10:26.875Z,24.64
2018-09-04T00:12:52.813Z,24.76
2018-09-04T00:15:18.747Z,24.83
2018-09-04T00:17:44.701Z,24.81
2018-09-04T00:20:10.624Z,24.64
2018-09-04T00:22:36.572Z,24.69
2018-09-04T00:25:02.497Z,24.70
2018-09-04T00:27:28.498Z,24.57
2018-09-04T00:29:54.392Z,24.47
2018-09-04T00:32:20.338Z,24.49
2018-09-04T00:34:46.270Z,24.12
2018-09-04T00:37:12.198Z,24.33
2018-09-04T00:39:38.155Z,24.73
2018-09-04T00:42:04.085Z,24.59
2018-09-04T00:44:30.049Z,24.53
2018-09-04T00:46:55.989Z,24.09
2018-09-04T00:49:21.931Z,24.50
2018-09-04T00:51:47.857Z,24.55
2018-09-04T00:54:13.798Z,24.62
2018-09-04T00:56:39.728Z,24.53
2018-09-04T00:59:05.750Z,24.35
2018-09-04T01:01:31.636Z,24.32
2018-09-04T01:03:57.632Z,24.46
2018-09-04T01:06:23.576Z,24.47
2018-09-04T01:08:49.528Z,24.31
2018-09-04T01:11:15.487Z,24.41
2018-09-04T01:13:41.416Z,24.01
2018-09-04T01:16:07.616Z,24.05
2018-09-04T01:18:33.552Z,23.90
2018-09-04T01:20:59.480Z,24.14
2018-09-04T01:23:25.423Z,24.36
2018-09-04T01:25:51.371Z,23.96
2018-09-04T01:28:17.304Z,23.95
2018-09-04T01:30:43.220Z,24.14
2018-09-04T01:33:09.169Z,24.27
2018-09-04T01:35:35.109Z,24.43
2018-09-04T01:38:01.063Z,24.33
2018-09-04T01:40:27.050Z,24.24
2018-09-04T01:42:52.996Z,24.51
2018-09-04T01:45:18.948Z,24.42
2018-09-04T01:47:44.884Z,23.81
2018-09-04T01:50:10.864Z,23.92
2018-09-04T01:52:36.841Z,24.19
2018-09-04T01:55:02.777Z,23.95
2018-09-04T01:57:28.734Z,24.32
2018-09-04T01:59:54.685Z,24.32
2018-09-04T02:02:20.645Z,23.91
2018-09-04T02:04:46.594Z,24.18
2018-09-04T02:07:12.560Z,24.12
2018-09-04T02:09:38.489Z,23.68
2018-09-04T02:12:04.461Z,23.83
2018-09-04T02:14:30.401Z,24.10
2018-09-04T02:16:56.360Z,23.92
2018-09-04T02:19:22.300Z,23.96
2018-09-04T02:21:48.241Z,24.04
2018-09-04T02:24:14.219Z,23.91
2018-09-04T02:26:40.213Z,23.93
2018-09-04T02:29:06.144Z,23.79
2018-09-04T02:31:32.100Z,23.76
2018-09-04T02:33:58.060Z,23.71
2018-09-04T02:36:24.004Z,23.73
2018-09-04T02:38:49.956Z,24.00
2018-09-04T02:41:15.941Z,23.87
2018-09-04T02:43:41.861Z,23.94
2018-09-04T02:46:07.808Z,24.06
2018-09-04T02:48:33.771Z,23.71
2018-09-04T02:50:59.704Z,23.42
2018-09-04T02:53:25.651Z,23.66
2018-09-04T02:55:51.603Z,23.73
2018-09-04T02:58:17.571Z,23.66
2018-09-04T03:00:43.553Z,23.44
2018-09-04T03:03:09.515Z,23.46
2018-09-04T03:05:35.464Z,23.72
2018-09-04T03:08:01.433Z,23.35
2018-09-04T03:10:27.377Z,23.35
2018-09-04T03:12:53.313Z,23.48
2018-09-04T03:15:19.311Z,23.73
2018-09-04T03:17:45.281Z,23.52
2018-09-04T03:20:11.227Z,23.30
2018-09-04T03:22:37.208Z,23.43
2018-09-04T03:27:35.554Z,23.38
2018-09-04T03:30:01.477Z,23.53
2018-09-04T03:32:27.461Z,23.30
2018-09-04T03:34:53.482Z,23.20
2018-09-04T03:37:19.486Z,23.29
2018-09-04T03:39:45.458Z,23.22
2018-09-04T03:42:11.493Z,23.35
2018-09-04T03:44:37.441Z,23.22
2018-09-04T03:47:03.425Z,23.13
2018-09-04T03:49:29.388Z,23.42
2018-09-04T03:51:55.420Z,23.29
2018-09-04T03:54:21.393Z,23.18
2018-09-04T03:56:47.338Z,23.43
2018-09-04T03:59:13.332Z,23.34
2018-09-04T04:01:39.339Z,23.17
2018-09-04T04:04:05.325Z,23.07
2018-09-04T04:06:31.256Z,23.41
2018-09-04T04:08:57.235Z,23.46
2018-09-04T04:11:23.171Z,23.13
2018-09-04T04:13:49.114Z,23.35
2018-09-04T04:16:15.086Z,23.15
2018-09-04T04:18:41.087Z,23.48
2018-09-04T04:21:07.043Z,23.02
2018-09-04T04:23:33.008Z,23.03
2018-09-04T04:25:58.966Z,23.34
2018-09-04T04:28:24.923Z,23.14
2018-09-04T04:30:50.875Z,22.97
2018-09-04T04:33:16.826Z,23.33
2018-09-04T04:35:42.780Z,22.95
2018-09-04T04:38:08.759Z,22.93
2018-09-04T04:40:34.724Z,23.36
2018-09-04T04:43:00.688Z,23.08
2018-09-04T04:45:26.644Z,23.30
2018-09-04T04:47:52.703Z,23.40
2018-09-04T04:50:18.692Z,23.52
2018-09-04T04:52:44.654Z,23.28
2018-09-04T04:55:10.608Z,22.84
2018-09-04T04:57:36.547Z,23.20
2018-09-04T05:00:02.507Z,23.20
2018-09-04T05:02:28.463Z,23.30
2018-09-04T05:04:54.447Z,23.62
2018-09-04T05:07:20.400Z,23.76
2018-09-04T05:09:47.356Z,23.72
2018-09-04T05:12:13.324Z,23.52
2018-09-04T05:14:39.289Z,23.38
2018-09-04T05:17:05.267Z,23.58
2018-09-04T05:19:31.225Z,23.38
2018-09-04T05:21:57.211Z,23.38
2018-09-04T05:24:23.172Z,23.43
2018-09-04T05:26:49.129Z,23.60
2018-09-04T05:29:15.237Z,23.57
2018-09-04T05:31:41.150Z,23.76
2018-09-04T05:34:07.231Z,23.72
2018-09-04T05:36:33.192Z,23.96
2018-09-04T05:38:59.152Z,23.88
2018-09-04T05:41:25.112Z,24.07
2018-09-04T05:43:51.100Z,24.15
2018-09-04T05:46:17.047Z,23.85
2018-09-04T05:48:43.067Z,24.24
2018-09-04T05:51:09.005Z,24.46
2018-09-04T05:53:35.072Z,24.61
2018-09-04T05:56:01.030Z,24.90
2018-09-04T05:58:26.966Z,25.12
2018-09-04T06:00:52.901Z,25.22
2018-09-04T06:03:18.848Z,25.24
2018-09-04T06:05:44.824Z,25.28
2018-09-04T06:08:10.814Z,25.45
2018-09-04T06:10:36.785Z,25.65
2018-09-04T06:13:02.738Z,25.84
2018-09-04T06:15:28.689Z,25.80
2018-09-04T06:17:54.638Z,25.93
2018-09-04T06:20:20.566Z,26.04
2018-09-04T06:22:46.510Z,26.15
2018-09-04T06:25:12.440Z,26.16
2018-09-04T06:27:39.443Z,26.13
2018-09-04T06:30:05.436Z,26.24
2018-09-04T06:32:31.388Z,26.14
2018-09-04T06:34:57.353Z,26.23
2018-09-04T06:37:23.306Z,26.19
2018-09-04T06:39:49.287Z,26.04
2018-09-04T06:42:15.255Z,26.02
2018-09-04T06:44:41.238Z,26.19
2018-09-04T06:47:07.204Z,26.27
2018-09-04T06:49:33.187Z,26.35
2018-09-04T06:51:59.187Z,26.44
2018-09-04T06:54:25.187Z,26.43
2018-09-04T06:56:51.176Z,26.44
2018-09-04T06:59:17.128Z,26.38
2018-09-04T07:01:43.076Z,26.23
2018-09-04T07:04:09.019Z,26.22
2018-09-04T07:06:34.967Z,26.36
2018-09-04T07:09:00.941Z,26.55
2018-09-04T07:11:26.875Z,26.71
2018-09-04T07:13:53.943Z,26.61
2018-09-04T07:16:19.926Z,26.70
2018-09-04T07:18:45.865Z,26.61
2018-09-04T07:23:44.188Z,26.70
2018-09-04T07:26:10.128Z,26.79
2018-09-04T07:28:36.117Z,26.88
2018-09-04T07:31:02.062Z,26.81
2018-09-04T07:33:28.013Z,27.01
2018-09-04T07:35:53.965Z,27.01
2018-09-04T07:38:19.912Z,27.01
2018-09-04T07:40:45.853Z,27.14
2018-09-04T07:43:12.788Z,27.25
2018-09-04T07:45:38.748Z,27.29
2018-09-04T07:48:04.685Z,27.36
2018-09-04T07:50:30.612Z,27.46
2018-09-04T07:52:56.536Z,27.42
2018-09-04T07:55:22.511Z,27.39
2018-09-04T07:57:48.450Z,27.22
2018-09-04T08:00:14.405Z,27.27
2018-09-04T08:02:40.338Z,27.30
2018-09-04T08:05:06.269Z,27.40
2018-09-04T08:07:32.213Z,27.49
2018-09-04T08:09:58.193Z,27.55
2018-09-04T08:12:24.164Z,27.54
2018-09-04T08:14:50.106Z,27.54
2018-09-04T08:17:16.085Z,27.53
2018-09-04T08:19:42.048Z,27.64
2018-09-04T08:22:08.022Z,27.45
2018-09-04T08:24:33.966Z,27.60
2018-09-04T08:26:59.927Z,27.64
2018-09-04T08:29:25.899Z,27.45
2018-09-04T08:31:51.882Z,27.66
2018-09-04T08:34:17.844Z,27.64
2018-09-04T08:36:43.803Z,27.59
2018-09-04T08:39:09.748Z,27.48
2018-09-04T08:41:35.702Z,27.52
2018-09-04T08:44:01.634Z,27.52
2018-09-04T08:46:27.600Z,27.43
2018-09-04T08:48:53.561Z,27.43
2018-09-04T08:51:19.526Z,27.45
2018-09-04T08:53:45.476Z,27.41
2018-09-04T08:56:11.444Z,27.38
2018-09-04T08:58:37.443Z,27.23
2018-09-04T09:01:03.388Z,27.30
2018-09-04T09:03:29.383Z,27.17
2018-09-04T09:05:55.401Z,27.25
2018-09-04T09:08:21.445Z,27.29
2018-09-04T09:10:47.458Z,27.28
2018-09-04T09:13:13.415Z,27.18
2018-09-04T09:15:39.372Z,27.16
2018-09-04T09:18:05.324Z,27.20
2018-09-04T09:20:33.487Z,27.17
2018-09-04T09:22:59.515Z,27.14
2018-09-04T09:25:25.413Z,27.25
2018-09-04T09:27:51.418Z,27.10
2018-09-04T09:30:17.360Z,27.07
2018-09-04T09:32:43.313Z,27.07
2018-09-04T09:35:09.370Z,27.11
2018-09-04T09:37:35.329Z,27.17
2018-09-04T09:40:02.329Z,27.25
2018-09-04T09:42:28.373Z,27.37
2018-09-04T09:44:54.329Z,27.37
2018-09-04T09:47:20.296Z,27.45
2018-09-04T09:49:46.252Z,27.34
2018-09-04T09:52:12.218Z,27.29
2018-09-04T09:54:38.172Z,27.43
2018-09-04T09:57:04.151Z,27.36
2018-09-04T09:59:30.164Z,27.30
2018-09-04T10:01:56.117Z,27.29
2018-09-04T10:04:22.078Z,27.43
2018-09-04T10:06:48.033Z,27.34
2018-09-04T10:09:13.974Z,27.39
2018-09-04T10:11:39.909Z,27.38
2018-09-04T10:14:05.880Z,27.22
2018-09-04T10:16:31.848Z,27.00
2018-09-04T10:18:57.814Z,27.05
2018-09-04T10:21:23.791Z,27.25
2018-09-04T10:23:49.727Z,27.28
2018-09-04T10:26:15.661Z,27.37
2018-09-04T10:28:41.646Z,27.40
2018-09-04T10:31:07.585Z,27.25
2018-09-04T10:33:33.550Z,27.38
2018-09-04T10:35:59.493Z,27.43
2018-09-04T10:38:25.455Z,27.31
2018-09-04T10:40:51.407Z,27.26
2018-09-04T10:43:17.390Z,27.22
2018-09-04T10:45:43.365Z,27.32
2018-09-04T10:48:09.319Z,27.45
2018-09-04T10:50:35.260Z,27.52
2018-09-04T10:53:01.223Z,27.48
2018-09-04T10:55:27.153Z,27.49
2018-09-04T10:57:53.197Z,27.46
2018-09-04T11:00:19.069Z,27.38
2018-09-04T11:02:45.029Z,27.27
2018-09-04T11:05:10.958Z,27.24
2018-09-04T11:07:36.913Z,27.15
2018-09-04T11:10:03.098Z,27.20
2018-09-04T11:12:28.887Z,27.23
2018-09-04T11:14:54.844Z,27.03
2018-09-04T11:17:20.796Z,27.06
2018-09-04T11:19:46.760Z,26.96
2018-09-04T11:22:12.728Z,27.05
2018-09-04T11:24:38.747Z,27.13
2018-09-04T11:27:04.691Z,26.97
2018-09-04T11:29:30.657Z,26.91
2018-09-04T11:31:56.665Z,26.82
2018-09-04T11:34:22.637Z,26.80
2018-09-04T11:36:48.608Z,26.92
2018-09-04T11:39:14.584Z,27.00
2018-09-04T11:41:40.549Z,27.20
2018-09-04T11:44:06.528Z,27.18
2018-09-04T11:46:32.482Z,27.30
2018-09-04T11:48:58.440Z,27.23
2018-09-04T11:51:24.374Z,27.07
2018-09-04T11:53:50.346Z,27.10
2018-09-04T11:56:16.314Z,26.89
2018-09-04T11:58:42.276Z,26.68
2018-09-04T12:01:08.237Z,26.75
2018-09-04T12:03:34.193Z,26.77
2018-09-04T12:06:00.144Z,26.62
2018-09-04T12:08:26.108Z,26.55
2018-09-04T12:10:52.063Z,26.66
2018-09-04T12:13:18.105Z,26.80
2018-09-04T12:15:43.995Z,26.81
2018-09-04T12:18:09.976Z,27.04
2018-09-04T12:20:35.912Z,27.05
2018-09-04T12:23:01.876Z,26.80
2018-09-04T12:25:27.848Z,26.80
2018-09-04T12:27:53.788Z,27.08
2018-09-04T12:30:19.734Z,27.29
2018-09-04T12:32:45.729Z,27.24
2018-09-04T12:35:11.671Z,27.22
2018-09-04T12:37:37.630Z,27.23
2018-09-04T12:40:03.582Z,26.98
2018-09-04T12:42:29.562Z,26.91
2018-09-04T12:44:55.525Z,26.75
2018-09-04T12:47:21.633Z,26.73
2018-09-04T12:49:47.592Z,26.75
2018-09-04T12:52:13.613Z,26.82
2018-09-04T12:54:39.640Z,26.72
2018-09-04T12:57:05.591Z,26.68
2018-09-04T12:59:31.588Z,26.81
2018-09-04T13:01:57.541Z,26.78
2018-09-04T13:04:23.527Z,26.79
2018-09-04T13:06:49.510Z,26.71
2018-09-04T13:09:15.563Z,26.73
2018-09-04T13:11:41.545Z,26.81
2018-09-04T13:14:07.498Z,26.89
2018-09-04T13:16:33.454Z,26.84
2018-09-04T13:18:59.423Z,26.77
2018-09-04T13:21:25.390Z,26.76
2018-09-04T13:23:51.348Z,26.99
2018-09-04T13:26:17.304Z,27.28
2018-09-04T13:28:43.276Z,27.42
2018-09-04T13:31:09.207Z,27.41
2018-09-04T13:33:35.155Z,27.30
2018-09-04T13:36:01.111Z,27.43
2018-09-04T13:38:27.082Z,27.40
2018-09-04T13:40:53.026Z,27.35
2018-09-04T13:43:18.986Z,27.45
2018-09-04T13:45:44.947Z,27.51
2018-09-04T13:48:10.923Z,27.55
2018-09-04T13:50:36.883Z,27.56
2018-09-04T13:53:02.828Z,27.56
2018-09-04T13:55:28.784Z,27.60
2018-09-04T13:57:54.733Z,27.60
2018-09-04T14:00:20.703Z,27.61
2018-09-04T14:02:46.651Z,27.62
2018-09-04T14:05:12.597Z,27.62
2018-09-04T14:07:38.566Z,27.61
2018-09-04T14:10:04.532Z,27.62
2018-09-04T14:12:30.495Z,27.62
2018-09-04T14:14:56.468Z,27.57
2018-09-04T14:17:22.449Z,27.58
2018-09-04T14:19:48.402Z,27.50
2018-09-04T14:22:14.356Z,27.49
2018-09-04T14:24:40.331Z,27.51
2018-09-04T14:27:06.274Z,27.55
2018-09-04T14:30:24.521Z,27.56
2018-09-04T14:31:58.235Z,27.56
2018-09-04T14:34:24.195Z,27.60
2018-09-04T14:36:50.328Z,27.58
2018-09-04T14:39:16.132Z,27.37
2018-09-04T14:41:42.104Z,27.47
2018-09-04T14:44:08.078Z,27.57
2018-09-04T14:46:34.038Z,27.58
2018-09-04T14:49:00.003Z,27.59
2018-09-04T14:51:25.971Z,27.63
2018-09-04T14:53:51.944Z,27.63
2018-09-04T14:56:17.918Z,27.61
2018-09-04T14:58:43.850Z,27.62
2018-09-04T15:01:09.824Z,27.64
2018-09-04T15:03:35.781Z,27.66
2018-09-04T15:06:01.809Z,27.65
2018-09-04T15:08:27.724Z,27.61
2018-09-04T15:10:53.685Z,27.59
2018-09-04T15:13:19.638Z,27.57
2018-09-04T15:15:45.768Z,26.55
2018-09-04T15:18:11.737Z,26.52
2018-09-04T15:20:37.705Z,26.51
2018-09-04T15:23:03.682Z,26.54
2018-09-04T15:25:29.685Z,26.71
2018-09-04T15:27:56.818Z,25.41
2018-09-04T15:30:22.788Z,26.86
2018-09-04T15:32:48.790Z,26.92
2018-09-04T15:35:14.765Z,26.66
2018-09-04T15:37:40.723Z,26.56
2018-09-04T15:40:06.691Z,26.65
2018-09-04T15:42:32.677Z,26.89
2018-09-04T15:44:58.636Z,26.82
2018-09-04T15:47:24.603Z,27.05
2018-09-04T15:49:50.556Z,27.12
2018-09-04T15:52:16.516Z,26.96
2018-09-04T15:54:42.482Z,27.00
2018-09-04T15:57:08.439Z,26.97
2018-09-04T15:59:34.378Z,26.80
2018-09-04T16:02:00.406Z,26.79
2018-09-04T16:04:26.395Z,26.77
2018-09-04T16:06:52.329Z,26.82
2018-09-04T16:09:18.311Z,26.70
2018-09-04T16:11:44.294Z,26.77
2018-09-04T16:14:10.330Z,26.75
2018-09-04T16:16:36.265Z,26.72
2018-09-04T16:19:02.259Z,26.79
2018-09-04T16:21:28.255Z,27.00
2018-09-04T16:23:54.218Z,27.07
2018-09-04T16:26:20.235Z,27.16
2018-09-04T16:28:46.258Z,26.90
2018-09-04T16:31:12.245Z,27.06
2018-09-04T16:33:38.233Z,27.02
2018-09-04T16:36:04.223Z,26.92
2018-09-04T16:38:30.229Z,27.03
2018-09-04T16:40:56.170Z,26.89
2018-09-04T16:43:22.126Z,26.84
2018-09-04T16:45:48.074Z,26.83
2018-09-04T16:48:14.013Z,26.77
2018-09-04T16:50:39.999Z,26.86
2018-09-04T16:53:05.963Z,26.79
2018-09-04T16:55:31.929Z,26.82
2018-09-04T16:57:57.914Z,26.70
2018-09-04T17:00:23.914Z,26.69
2018-09-04T17:02:50.016Z,26.78
2018-09-04T17:05:15.978Z,26.80
2018-09-04T17:07:41.964Z,26.75
2018-09-04T17:10:08.431Z,26.83
2018-09-04T17:12:34.477Z,26.78
2018-09-04T17:15:00.430Z,26.77
2018-09-04T17:17:26.384Z,26.77
2018-09-04T17:19:52.354Z,26.75
2018-09-04T17:22:18.323Z,26.81
2018-09-04T17:24:44.311Z,26.96
2018-09-04T17:27:10.329Z,26.87
2018-09-04T17:29:36.294Z,26.88
2018-09-04T17:32:02.305Z,26.84
2018-09-04T17:34:28.276Z,26.92
2018-09-04T17:36:54.242Z,26.93
2018-09-04T17:39:20.201Z,26.88
2018-09-04T17:41:46.139Z,27.08
2018-09-04T17:44:12.102Z,27.20
2018-09-04T17:46:38.070Z,27.38
2018-09-04T17:49:04.162Z,27.49
2018-09-04T17:51:30.145Z,27.57
2018-09-04T17:53:56.098Z,27.65
2018-09-04T17:56:22.064Z,27.70
2018-09-04T17:58:48.039Z,27.59
2018-09-04T18:01:13.993Z,27.46
2018-09-04T18:03:40.092Z,27.55
2018-09-04T18:06:06.027Z,27.63
2018-09-04T18:08:31.988Z,27.61
2018-09-04T18:10:57.982Z,27.64
2018-09-04T18:13:23.960Z,27.63
2018-09-04T18:15:49.910Z,27.53
2018-09-04T18:18:15.878Z,27.47
2018-09-04T18:20:41.859Z,27.43
2018-09-04T18:23:07.830Z,27.45
2018-09-04T18:25:33.778Z,27.45
2018-09-04T18:27:59.772Z,27.47
2018-09-04T18:30:25.706Z,27.16
2018-09-04T18:32:51.667Z,27.31
2018-09-04T18:35:17.625Z,27.25
2018-09-04T18:37:43.562Z,27.12
2018-09-04T18:40:09.528Z,27.15
2018-09-04T18:42:35.490Z,27.27
2018-09-04T18:45:01.457Z,26.94
2018-09-04T18:47:27.449Z,26.80
2018-09-04T18:49:53.421Z,27.13
2018-09-04T18:52:19.377Z,26.92
2018-09-04T18:54:45.406Z,26.91
2018-09-04T18:57:11.369Z,26.89
2018-09-04T18:59:37.390Z,26.65
2018-09-04T19:02:03.312Z,26.93
2018-09-04T19:04:29.285Z,26.93
2018-09-04T19:06:55.265Z,27.02
2018-09-04T19:09:21.276Z,26.89
2018-09-04T19:11:47.249Z,26.91
2018-09-04T19:14:13.254Z,26.85
2018-09-04T19:16:39.200Z,26.89
2018-09-04T19:19:05.152Z,26.89
2018-09-04T19:21:31.091Z,26.77
2018-09-04T19:23:57.192Z,26.69
2018-09-04T19:26:23.145Z,26.69
2018-09-04T19:28:49.114Z,26.52
2018-09-04T19:31:15.058Z,26.59
2018-09-04T19:33:41.118Z,26.72
2018-09-04T19:36:07.071Z,26.60
2018-09-04T19:38:33.092Z,26.39
2018-09-04T19:40:59.054Z,26.59
2018-09-04T19:43:25.039Z,26.53
2018-09-04T19:45:51.035Z,26.42
2018-09-04T19:48:17.004Z,26.47
2018-09-04T19:50:43.003Z,26.59
2018-09-04T19:53:08.951Z,26.58
2018-09-04T19:55:35.979Z,26.66
2018-09-04T19:58:01.993Z,26.67
2018-09-04T20:00:28.037Z,26.71
2018-09-04T20:02:53.976Z,26.67
2018-09-04T20:05:19.937Z,26.65
2018-09-04T20:07:45.994Z,26.47
2018-09-04T20:10:11.963Z,26.28
2018-09-04T20:12:37.917Z,26.40
2018-09-04T20:15:03.916Z,26.51
2018-09-04T20:17:29.986Z,26.52
2018-09-04T20:19:55.960Z,26.54
2018-09-04T20:22:21.907Z,26.27
2018-09-04T20:24:47.923Z,26.44
2018-09-04T20:27:13.893Z,26.43
2018-09-04T20:29:39.882Z,26.57
2018-09-04T20:32:05.812Z,26.22
2018-09-04T20:34:31.780Z,26.39
2018-09-04T20:36:57.717Z,26.23
2018-09-04T20:39:23.795Z,26.64
2018-09-04T20:41:49.755Z,26.61
2018-09-04T20:44:15.719Z,26.58
2018-09-04T20:46:41.692Z,26.58
2018-09-04T20:49:07.633Z,26.34
2018-09-04T20:51:33.697Z,26.15
2018-09-04T20:53:59.691Z,26.41
2018-09-04T20:56:25.662Z,26.50
2018-09-04T20:58:51.620Z,26.30
2018-09-04T21:01:17.667Z,26.49
2018-09-04T21:03:43.727Z,26.16
2018-09-04T21:06:09.739Z,26.50
2018-09-04T21:08:35.755Z,26.46
2018-09-04T21:11:01.771Z,26.33
2018-09-04T21:13:27.861Z,26.52
2018-09-04T21:15:53.870Z,26.33
2018-09-04T21:18:19.890Z,26.49
2018-09-04T21:20:45.937Z,26.58
2018-09-04T21:23:11.943Z,26.61
2018-09-04T21:25:38.063Z,26.55
2018-09-04T21:28:04.072Z,26.40
2018-09-04T21:30:30.190Z,26.31
2018-09-04T21:32:56.208Z,26.23
2018-09-04T21:35:22.213Z,26.25
2018-09-04T21:37:48.235Z,26.11
2018-09-04T21:40:14.240Z,25.94
2018-09-04T21:42:40.257Z,26.08
2018-09-04T21:45:06.278Z,26.20
2018-09-04T21:47:32.278Z,26.01
2018-09-04T21:49:58.286Z,26.07
2018-09-04T21:52:24.312Z,26.01
2018-09-04T21:54:50.300Z,26.05
2018-09-04T21:57:16.345Z,25.74
2018-09-04T21:59:42.333Z,26.02
2018-09-04T22:02:08.362Z,25.90
2018-09-04T22:04:34.376Z,25.79
2018-09-04T22:07:00.384Z,25.76
2018-09-04T22:09:26.397Z,25.87
2018-09-04T22:11:52.405Z,25.92
2018-09-04T22:14:18.376Z,25.77
2018-09-04T22:16:44.396Z,25.82
2018-09-04T22:19:10.386Z,25.53
2018-09-04T22:21:36.420Z,25.82
2018-09-04T22:24:02.420Z,25.85
2018-09-04T22:26:28.436Z,25.85
2018-09-04T22:28:54.439Z,25.68
2018-09-04T22:31:20.411Z,25.30
2018-09-04T22:33:46.407Z,25.38
2018-09-04T22:36:12.390Z,25.78
2018-09-04T22:38:38.380Z,25.47
2018-09-04T22:41:04.381Z,25.62
2018-09-04T22:43:30.387Z,25.63
2018-09-04T22:45:56.391Z,25.37
2018-09-04T22:48:22.408Z,25.63
2018-09-04T22:50:48.409Z,25.38
2018-09-04T22:53:14.424Z,25.14
2018-09-04T22:55:40.426Z,25.27
2018-09-04T22:58:06.497Z,25.47
2018-09-04T23:00:32.459Z,25.31
2018-09-04T23:02:58.450Z,25.37
2018-09-04T23:05:24.462Z,25.19
2018-09-04T23:07:50.464Z,25.34
2018-09-04T23:10:16.460Z,25.39
2018-09-04T23:12:42.464Z,24.89
2018-09-04T23:15:08.471Z,25.29
2018-09-04T23:17:34.467Z,25.34
2018-09-04T23:20:00.582Z,25.17
2018-09-04T23:22:26.580Z,25.05
2018-09-04T23:24:52.596Z,25.23
2018-09-04T23:27:18.648Z,24.85
2018-09-04T23:29:44.657Z,24.59
2018-09-04T23:32:10.645Z,25.01
2018-09-04T23:34:36.644Z,25.14
2018-09-04T23:37:02.680Z,24.91
2018-09-04T23:39:28.697Z,24.87
2018-09-04T23:41:54.695Z,24.78
2018-09-04T23:44:20.695Z,24.62
2018-09-04T23:46:46.681Z,24.42
2018-09-04T23:49:12.680Z,24.81
2018-09-04T23:51:38.662Z,24.95
2018-09-04T23:56:30.483Z,24.87
2018-09-04T23:58:56.481Z,24.82
